Time;durP1;ratioP1;P1;durP2;ratioP2;P2;SDS_P1;SDS_P2;PMS_P1;PMS_P2;Temp;Humidity;BMP_temperature;BMP_pressure;BME280_temperature;BME280_humidity;BME280_pressure;Samples;Min_cycle;Max_cycle;Signal;HPM_P1;HPM_P2
2024/01/30 00:00:05;;;;;;;;;49.00;40.00;;;;;5.18;100.00;100604.72;6146247;28;96428;-57
2024/01/30 00:03:08;;;;;;;;;52.50;41.50;;;;;5.16;100.00;100606.69;6162723;28;96543;-57
2024/01/30 00:06:12;;;;;;;;;48.00;40.00;;;;;5.15;100.00;100610.34;6162947;28;96365;-58
2024/01/30 00:09:16;;;;;;;;;51.60;41.80;;;;;5.12;100.00;100607.97;6163611;28;96363;-58
2024/01/30 00:12:19;;;;;;;;;49.60;40.00;;;;;5.06;100.00;100595.19;6163434;28;96228;-58
2024/01/30 00:15:22;;;;;;;;;47.80;39.00;;;;;5.01;100.00;100596.59;6163637;28;96744;-58
2024/01/30 00:18:25;;;;;;;;;47.50;39.75;;;;;5.02;100.00;100600.97;6145263;28;96258;-58
2024/01/30 00:21:29;;;;;;;;;52.00;40.00;;;;;5.02;100.00;100595.63;6157746;28;96446;-58
2024/01/30 00:24:33;;;;;;;;;46.00;37.80;;;;;4.99;100.00;100610.09;6156066;28;96561;-58
2024/01/30 00:27:36;;;;;;;;;51.40;42.20;;;;;4.96;100.00;100604.22;6144512;28;97419;-58
2024/01/30 00:30:39;;;;;;;;;50.00;40.00;;;;;4.93;100.00;100601.84;6145630;28;96563;-58
2024/01/30 00:33:43;;;;;;;;;52.80;42.00;;;;;4.94;100.00;100604.34;6162897;28;96270;-58
2024/01/30 00:36:46;;;;;;;;;51.20;41.00;;;;;4.94;100.00;100603.50;6163338;28;96326;-58
2024/01/30 00:39:51;;;;;;;;;51.00;41.00;;;;;4.93;100.00;100599.16;6162996;28;96433;-58
2024/01/30 00:42:54;;;;;;;;;52.80;42.00;;;;;4.90;100.00;100600.28;6162639;28;96407;-58
2024/01/30 00:45:57;;;;;;;;;49.20;39.20;;;;;4.90;100.00;100594.09;6159313;28;97026;-58
2024/01/30 00:49:01;;;;;;;;;51.00;42.00;;;;;4.86;100.00;100598.03;6152290;28;97349;-58
2024/01/30 00:52:04;;;;;;;;;52.00;42.00;;;;;4.88;100.00;100598.75;6162723;28;96427;-58
2024/01/30 00:55:09;;;;;;;;;45.60;38.00;;;;;4.86;100.00;100598.88;6145210;28;96724;-58
2024/01/30 00:58:12;;;;;;;;;52.60;41.60;;;;;4.87;100.00;100602.41;6162342;28;96990;-58
2024/01/30 01:01:15;;;;;;;;;51.00;41.00;;;;;4.86;100.00;100598.88;6163141;28;96413;-58
2024/01/30 01:04:22;;;;;;;;;52.00;42.00;;;;;4.85;100.00;100594.53;6143820;28;96405;-58
2024/01/30 01:07:25;;;;;;;;;52.00;42.00;;;;;4.88;100.00;100596.06;6162406;28;96422;-58
2024/01/30 01:10:29;;;;;;;;;53.00;42.00;;;;;4.85;100.00;100583.84;6161153;28;97217;-58
2024/01/30 01:13:33;;;;;;;;;53.40;43.00;;;;;4.87;100.00;100592.56;6134789;28;96852;-58
2024/01/30 01:16:37;;;;;;;;;53.00;42.80;;;;;4.89;100.00;100593.25;6162333;28;96364;-57
2024/01/30 01:19:40;;;;;;;;;50.00;41.00;;;;;4.90;100.00;100588.75;6165097;28;96375;-58
2024/01/30 01:22:43;;;;;;;;;51.50;42.00;;;;;4.75;100.00;100572.31;6148303;28;97161;-58
2024/01/30 01:25:48;;;;;;;;;53.00;42.00;;;;;4.77;100.00;100581.88;6166734;28;96352;-58
2024/01/30 01:28:51;;;;;;;;;53.00;43.00;;;;;4.82;100.00;100594.81;6166244;28;96416;-58
2024/01/30 01:31:54;;;;;;;;;53.20;42.80;;;;;4.82;100.00;100586.81;6173586;28;96311;-55
2024/01/30 01:34:57;;;;;;;;;51.80;41.80;;;;;4.77;100.00;100579.22;6184044;28;96398;-54
2024/01/30 01:38:00;;;;;;;;;52.20;42.00;;;;;4.74;100.00;100574.13;6160847;28;96524;-54
2024/01/30 01:41:05;;;;;;;;;53.00;41.00;;;;;4.69;100.00;100570.25;6167033;28;96222;-54
2024/01/30 01:44:08;;;;;;;;;53.25;43.00;;;;;4.62;100.00;100563.78;6185407;28;96315;-55
2024/01/30 01:47:12;;;;;;;;;52.25;41.00;;;;;4.56;100.00;100557.16;6185739;28;96366;-54
2024/01/30 01:50:18;;;;;;;;;48.75;39.75;;;;;4.57;100.00;100566.88;6184998;28;96933;-54
2024/01/30 01:53:22;;;;;;;;;47.20;38.40;;;;;4.55;100.00;100568.81;6185629;28;96372;-54
2024/01/30 01:56:28;;;;;;;;;48.00;39.60;;;;;4.54;100.00;100577.00;6166705;28;96718;-54
2024/01/30 01:59:31;;;;;;;;;50.00;41.00;;;;;4.54;100.00;100571.66;6185841;28;96600;-54
2024/01/30 02:02:36;;;;;;;;;51.20;40.00;;;;;4.52;100.00;100574.47;6214058;23;96328;-53
2024/01/30 02:05:42;;;;;;;;;53.00;43.00;;;;;4.52;100.00;100569.13;6173969;28;96428;-53
2024/01/30 02:08:45;;;;;;;;;54.60;44.00;;;;;4.52;100.00;100573.63;6167233;28;96977;-53
2024/01/30 02:11:50;;;;;;;;;52.50;42.00;;;;;4.49;100.00;100568.56;6166055;28;96423;-53
2024/01/30 02:14:54;;;;;;;;;53.40;42.40;;;;;4.48;100.00;100558.88;6178399;28;96318;-53
2024/01/30 02:17:57;;;;;;;;;50.80;40.00;;;;;4.45;100.00;100559.97;6167146;28;97137;-52
2024/01/30 02:21:05;;;;;;;;;49.00;39.00;;;;;4.44;100.00;100562.81;6166697;28;96352;-53
2024/01/30 02:24:08;;;;;;;;;50.00;40.00;;;;;4.46;100.00;100561.66;6167049;28;96413;-53
2024/01/30 02:27:12;;;;;;;;;49.60;39.20;;;;;4.45;100.00;100561.84;6181452;28;96395;-53
2024/01/30 02:30:15;;;;;;;;;45.60;38.00;;;;;4.43;100.00;100556.63;6190943;28;97357;-53
2024/01/30 02:33:18;;;;;;;;;50.00;39.75;;;;;4.39;100.00;100554.38;6190500;28;97146;-53
2024/01/30 02:36:22;;;;;;;;;50.00;40.00;;;;;4.35;100.00;100554.66;6189072;28;96475;-52
2024/01/30 02:39:25;;;;;;;;;49.80;40.00;;;;;4.32;100.00;100548.75;6191293;28;96412;-53
2024/01/30 02:42:29;;;;;;;;;48.25;40.00;;;;;4.30;100.00;100546.22;6172647;28;96424;-53
2024/01/30 02:45:32;;;;;;;;;49.00;39.00;;;;;4.30;100.00;100540.88;6166644;28;96398;-53
2024/01/30 02:48:35;;;;;;;;;47.60;40.00;;;;;4.28;100.00;100542.00;6166579;28;96487;-53
2024/01/30 02:51:40;;;;;;;;;49.00;38.60;;;;;4.27;100.00;100537.66;6176090;28;96371;-53
2024/01/30 02:54:43;;;;;;;;;51.00;41.00;;;;;4.26;100.00;100531.47;6190146;28;96475;-52
2024/01/30 02:57:46;;;;;;;;;52.00;42.00;;;;;4.24;100.00;100530.78;6191592;28;96384;-53
2024/01/30 03:00:49;;;;;;;;;51.00;40.00;;;;;4.22;100.00;100527.41;6188704;28;96953;-52
2024/01/30 03:03:52;;;;;;;;;51.60;41.40;;;;;4.19;100.00;100529.50;6186816;28;96309;-53
2024/01/30 03:06:57;;;;;;;;;47.50;38.00;;;;;4.15;100.00;100520.97;6166133;28;96401;-53
2024/01/30 03:10:01;;;;;;;;;51.60;42.00;;;;;4.16;100.00;100527.97;6159376;28;96350;-53
2024/01/30 03:13:04;;;;;;;;;54.40;44.00;;;;;4.05;100.00;100514.78;6195912;28;96394;-55
2024/01/30 03:16:09;;;;;;;;;51.00;42.00;;;;;4.15;100.00;100523.63;6196679;28;96415;-55
2024/01/30 03:19:12;;;;;;;;;51.80;42.00;;;;;4.14;100.00;100524.59;6197441;28;96339;-56
2024/01/30 03:22:17;;;;;;;;;51.00;41.40;;;;;4.16;100.00;100530.63;6172310;28;96912;-55
2024/01/30 03:25:20;;;;;;;;;53.00;44.00;;;;;4.18;100.00;100530.50;6197382;28;96530;-56
2024/01/30 03:28:23;;;;;;;;;51.00;41.00;;;;;4.18;100.00;100536.69;6195456;28;96959;-55
2024/01/30 03:31:27;;;;;;;;;52.50;41.50;;;;;4.19;100.00;100530.38;6196406;28;96217;-58
2024/01/30 03:34:30;;;;;;;;;50.00;40.00;;;;;4.17;100.00;100531.47;6195704;28;96893;-56
2024/01/30 03:37:35;;;;;;;;;55.25;43.75;;;;;4.20;100.00;100536.53;6172920;28;96390;-56
2024/01/30 03:40:38;;;;;;;;;53.00;42.67;;;;;4.20;100.00;100528.53;6155234;28;97001;-55
2024/01/30 03:43:41;;;;;;;;;51.50;42.00;;;;;4.19;100.00;100537.53;6196430;28;96292;-55
2024/01/30 03:46:44;;;;;;;;;54.60;44.00;;;;;3.82;100.00;100481.31;6188664;28;96355;-55
2024/01/30 03:49:47;;;;;;;;;52.50;42.50;;;;;4.18;100.00;100535.84;6192846;28;96562;-55
2024/01/30 03:52:52;;;;;;;;;54.40;44.20;;;;;4.03;100.00;100511.38;6184268;28;97075;-55
2024/01/30 03:55:55;;;;;;;;;50.00;40.60;;;;;4.17;100.00;100534.13;6170903;28;96374;-55
2024/01/30 03:59:00;;;;;;;;;56.00;44.40;;;;;4.16;100.00;100538.63;6182728;28;96999;-55
2024/01/30 04:02:04;;;;;;;;;55.00;44.00;;;;;4.19;100.00;100529.50;6196376;28;96312;-55
2024/01/30 04:05:08;;;;;;;;;53.00;41.60;;;;;4.18;100.00;100533.16;6196772;28;96440;-56
2024/01/30 04:08:12;;;;;;;;;47.00;38.00;;;;;4.13;100.00;100522.06;6194801;28;96404;-55
2024/01/30 04:11:15;;;;;;;;;50.80;41.20;;;;;4.10;100.00;100531.22;6184318;28;96306;-55
2024/01/30 04:14:19;;;;;;;;;48.00;38.80;;;;;4.06;100.00;100521.78;6190050;28;96683;-55
2024/01/30 04:17:22;;;;;;;;;51.25;41.25;;;;;4.04;100.00;100526.41;6186143;28;96489;-55
2024/01/30 04:20:25;;;;;;;;;49.40;40.40;;;;;3.99;100.00;100526.00;6175962;28;96293;-55
2024/01/30 04:23:29;;;;;;;;;47.00;38.60;;;;;3.96;100.00;100522.78;6184094;28;96473;-55
2024/01/30 04:26:32;;;;;;;;;51.60;41.80;;;;;3.92;100.00;100530.19;6186954;28;96743;-55
2024/01/30 04:29:35;;;;;;;;;48.00;38.00;;;;;3.91;100.00;100531.16;6187010;28;96618;-55
2024/01/30 04:32:39;;;;;;;;;48.20;39.00;;;;;3.88;100.00;100526.97;6190429;28;96801;-55
2024/01/30 04:35:42;;;;;;;;;47.40;38.00;;;;;3.73;100.00;100501.69;6192542;28;96362;-55
2024/01/30 04:38:46;;;;;;;;;44.60;35.00;;;;;3.89;100.00;100538.50;6193341;28;96358;-55
2024/01/30 04:41:49;;;;;;;;;44.00;36.00;;;;;3.81;100.00;100536.50;6168751;28;96563;-55
2024/01/30 04:44:52;;;;;;;;;49.25;38.25;;;;;3.77;100.00;100539.56;6167738;28;96352;-56
2024/01/30 04:47:55;;;;;;;;;49.40;38.00;;;;;3.73;100.00;100540.84;6169341;28;96672;-55
2024/01/30 04:51:02;;;;;;;;;45.00;37.00;;;;;3.67;100.00;100544.91;6180742;28;96669;-56
2024/01/30 04:54:07;;;;;;;;;44.80;36.40;;;;;3.63;100.00;100547.97;6183493;28;97023;-55
2024/01/30 04:57:12;;;;;;;;;44.60;36.00;;;;;3.55;100.00;100548.69;6185887;28;96693;-55
2024/01/30 05:00:15;;;;;;;;;45.20;37.80;;;;;3.53;100.00;100537.28;6179795;28;96381;-55
2024/01/30 05:03:18;;;;;;;;;46.20;36.60;;;;;3.55;100.00;100543.34;6171544;28;99153;-56
2024/01/30 05:06:26;;;;;;;;;46.75;38.00;;;;;3.56;100.00;100531.69;6168973;28;96393;-55
2024/01/30 05:09:30;;;;;;;;;52.00;42.00;;;;;3.58;100.00;100543.06;6188074;28;96353;-55
2024/01/30 05:12:33;;;;;;;;;47.20;37.20;;;;;3.59;100.00;100541.22;6187824;28;96676;-55
2024/01/30 05:15:37;;;;;;;;;50.00;40.00;;;;;3.55;100.00;100539.81;6189146;28;96834;-55
2024/01/30 05:18:40;;;;;;;;;46.00;38.00;;;;;3.49;100.00;100538.53;6183046;28;97294;-55
2024/01/30 05:21:43;;;;;;;;;49.25;40.25;;;;;3.46;100.00;100550.34;6184326;28;96545;-55
2024/01/30 05:24:48;;;;;;;;;52.20;42.00;;;;;3.42;100.00;100540.09;6184567;28;96359;-55
2024/01/30 05:27:51;;;;;;;;;51.25;40.25;;;;;3.39;100.00;100535.84;6188841;28;97998;-55
2024/01/30 05:30:54;;;;;;;;;54.00;43.20;;;;;3.39;100.00;100529.66;6190340;28;96640;-55
2024/01/30 05:33:57;;;;;;;;;50.00;42.00;;;;;3.43;100.00;100536.41;6183242;28;96974;-54
2024/01/30 05:37:00;;;;;;;;;52.80;42.60;;;;;3.48;100.00;100539.53;6186322;28;96383;-55
2024/01/30 05:40:06;;;;;;;;;53.00;41.80;;;;;3.50;100.00;100540.25;6157956;28;97936;-54
2024/01/30 05:43:10;;;;;;;;;49.00;40.00;;;;;3.47;100.00;100527.16;6175160;28;96751;-55
2024/01/30 05:46:13;;;;;;;;;55.20;43.40;;;;;3.53;100.00;100537.28;6185817;28;96702;-55
2024/01/30 05:49:16;;;;;;;;;53.80;42.20;;;;;3.57;100.00;100537.88;6187002;28;96348;-55
2024/01/30 05:52:19;;;;;;;;;53.20;41.80;;;;;3.61;100.00;100539.28;6184579;28;96490;-55
2024/01/30 05:55:24;;;;;;;;;53.75;43.00;;;;;3.63;100.00;100550.66;6184103;28;96547;-55
2024/01/30 05:58:27;;;;;;;;;56.20;44.20;;;;;3.67;100.00;100552.91;6183602;28;98170;-55
2024/01/30 06:01:30;;;;;;;;;57.40;44.20;;;;;3.71;100.00;100543.66;6178544;28;96493;-55
2024/01/30 06:04:34;;;;;;;;;53.00;44.00;;;;;3.74;100.00;100546.03;6178027;28;96415;-55
2024/01/30 06:07:37;;;;;;;;;50.40;42.00;;;;;3.76;100.00;100538.72;6175688;28;96652;-54
2024/01/30 06:10:42;;;;;;;;;51.60;41.00;;;;;3.63;100.00;100508.81;6181786;28;96611;-55
2024/01/30 06:13:45;;;;;;;;;52.25;41.00;;;;;3.84;100.00;100540.72;6185571;28;96450;-55
2024/01/30 06:16:48;;;;;;;;;57.60;43.00;;;;;3.84;100.00;100541.56;6187650;28;97121;-55
2024/01/30 06:19:51;;;;;;;;;55.00;44.00;;;;;3.87;100.00;100540.44;6187696;28;96631;-55
2024/01/30 06:22:55;;;;;;;;;52.00;41.00;;;;;3.89;100.00;100549.16;6187823;28;96475;-55
2024/01/30 06:25:59;;;;;;;;;54.00;43.00;;;;;3.91;100.00;100544.50;6185654;28;96617;-55
2024/01/30 06:29:02;;;;;;;;;51.60;41.00;;;;;3.99;100.00;100542.00;6185769;28;96442;-55
2024/01/30 06:32:06;;;;;;;;;50.60;41.00;;;;;4.20;100.00;100542.69;6180238;28;96907;-55
2024/01/30 06:35:10;;;;;;;;;53.40;42.40;;;;;4.44;100.00;100547.63;6179269;28;96411;-55
2024/01/30 06:38:15;;;;;;;;;50.67;41.00;;;;;5.10;100.00;100542.25;6172599;28;96826;-55
2024/01/30 06:41:20;;;;;;;;;48.50;40.00;;;;;5.99;100.00;100533.50;6165250;28;96320;-55
2024/01/30 06:44:26;;;;;;;;;50.50;40.50;;;;;7.20;100.00;100535.41;6169227;28;98201;-56
2024/01/30 06:47:31;;;;;;;;;50.00;40.00;;;;;8.40;100.00;100533.25;6168860;28;96750;-56
2024/01/30 06:50:34;;;;;;;;;46.80;38.00;;;;;9.18;100.00;100539.72;6168994;28;96336;-56
2024/01/30 06:53:37;;;;;;;;;45.60;37.60;;;;;9.08;100.00;100539.91;6169088;28;97370;-56
2024/01/30 06:56:42;;;;;;;;;47.00;39.00;;;;;8.26;100.00;100497.09;6168717;28;96442;-57
2024/01/30 06:59:45;;;;;;;;;49.20;40.00;;;;;7.99;100.00;100535.84;6168835;28;97021;-56
2024/01/30 07:02:48;;;;;;;;;49.00;39.20;;;;;7.49;100.00;100526.97;6168957;28;96413;-55
2024/01/30 07:05:51;;;;;;;;;46.80;38.40;;;;;7.30;100.00;100536.13;6169646;28;96726;-55
2024/01/30 07:08:54;;;;;;;;;51.60;41.60;;;;;7.15;100.00;100535.03;6169153;28;96337;-55
2024/01/30 07:11:59;;;;;;;;;48.00;38.60;;;;;7.23;100.00;100535.91;6168898;28;96345;-56
2024/01/30 07:15:03;;;;;;;;;46.20;37.80;;;;;7.56;100.00;100547.66;6168603;28;96372;-55
2024/01/30 07:18:07;;;;;;;;;46.50;38.00;;;;;7.64;100.00;100541.47;6168634;28;96891;-55
2024/01/30 07:21:11;;;;;;;;;47.50;38.00;;;;;7.59;100.00;100535.75;6169310;28;96371;-55
2024/01/30 07:24:14;;;;;;;;;47.75;39.00;;;;;7.52;100.00;100530.19;6169576;28;96639;-55
2024/01/30 07:27:18;;;;;;;;;46.00;38.00;;;;;7.67;100.00;100541.97;6174685;28;96224;-56
2024/01/30 07:30:21;;;;;;;;;42.40;35.00;;;;;8.70;100.00;100546.00;6168580;28;96636;-56
2024/01/30 07:33:24;;;;;;;;;43.00;35.80;;;;;10.03;100.00;100543.34;6167488;28;96382;-56
2024/01/30 07:36:28;;;;;;;;;47.00;37.60;;;;;12.08;99.86;100535.53;6167307;28;96324;-58
2024/01/30 07:39:31;;;;;;;;;50.40;40.40;;;;;15.14;85.82;100537.50;6167488;28;97032;-56
2024/01/30 07:42:35;;;;;;;;;51.40;42.00;;;;;18.20;72.00;100537.53;6168577;28;96390;-56
2024/01/30 07:45:39;;;;;;;;;51.20;41.00;;;;;20.85;60.90;100532.22;6182902;28;97077;-56
2024/01/30 07:48:42;;;;;;;;;49.75;41.75;;;;;23.06;51.22;100535.25;6193095;28;96798;-57
2024/01/30 07:51:46;;;;;;;;;52.20;42.00;;;;;24.80;44.88;100534.63;6193599;28;96338;-57
2024/01/30 07:54:50;;;;;;;;;52.00;42.00;;;;;26.26;40.51;100532.66;6216969;28;96286;-56
2024/01/30 07:57:55;;;;;;;;;51.80;41.00;;;;;27.33;35.93;100524.31;6208947;28;97187;-56
2024/01/30 08:01:00;;;;;;;;;52.80;42.00;;;;;28.23;34.58;100514.13;6188970;28;96489;-57
2024/01/30 08:04:04;;;;;;;;;51.40;41.60;;;;;28.94;32.94;100528.84;6190397;28;97146;-56
2024/01/30 08:07:07;;;;;;;;;50.20;41.00;;;;;29.58;32.32;100526.03;6185907;28;96280;-57
2024/01/30 08:10:12;;;;;;;;;49.60;41.00;;;;;30.27;30.39;100524.03;6184669;28;96281;-56
2024/01/30 08:13:17;;;;;;;;;50.00;41.00;;;;;31.25;29.73;100525.00;6186862;28;96229;-57
2024/01/30 08:16:20;;;;;;;;;52.00;42.00;;;;;32.37;28.56;100535.75;6189073;28;96485;-57
2024/01/30 08:19:24;;;;;;;;;48.00;39.00;;;;;33.36;26.90;100529.13;6173533;28;96557;-57
2024/01/30 08:22:28;;;;;;;;;49.00;40.40;;;;;33.82;25.36;100528.28;6191028;28;96292;-57
2024/01/30 08:25:31;;;;;;;;;49.00;41.00;;;;;34.45;25.36;100518.03;6190447;28;96291;-57
2024/01/30 08:28:36;;;;;;;;;51.60;41.00;;;;;35.12;24.02;100526.16;6190063;28;96416;-57
2024/01/30 08:31:39;;;;;;;;;47.00;38.00;;;;;35.64;23.82;100521.56;6185636;28;96310;-57
2024/01/30 08:34:42;;;;;;;;;46.60;39.60;;;;;36.19;22.66;100516.56;6179536;28;96306;-57
2024/01/30 08:37:46;;;;;;;;;47.40;40.00;;;;;36.86;22.71;100516.59;6174333;28;96318;-58
2024/01/30 08:40:49;;;;;;;;;49.80;40.00;;;;;37.48;22.31;100517.91;6159710;28;98223;-58
2024/01/30 08:43:54;;;;;;;;;49.80;39.40;;;;;37.74;22.44;100517.38;6177396;28;96460;-58
2024/01/30 08:46:57;;;;;;;;;49.20;41.00;;;;;37.50;21.83;100521.16;6186549;28;96228;-58
2024/01/30 08:50:02;;;;;;;;;56.00;44.00;;;;;37.41;21.33;100514.91;6204485;28;96442;-58
2024/01/30 08:53:05;;;;;;;;;58.80;46.00;;;;;37.59;21.53;100518.19;6184643;28;96975;-58
2024/01/30 08:56:09;;;;;;;;;58.00;47.00;;;;;37.85;21.55;100510.00;6186063;28;96370;-58
2024/01/30 08:59:13;;;;;;;;;57.00;46.00;;;;;38.33;21.63;100520.00;6200196;28;96463;-58
2024/01/30 09:02:18;;;;;;;;;58.80;47.80;;;;;38.61;20.94;100504.94;6200760;28;96357;-58
2024/01/30 09:05:21;;;;;;;;;57.60;46.00;;;;;39.00;20.69;100510.16;6199354;28;96337;-58
2024/01/30 09:08:24;;;;;;;;;57.00;46.00;;;;;39.20;20.74;100504.47;6201956;28;96971;-58
2024/01/30 09:11:30;;;;;;;;;58.00;48.00;;;;;39.46;20.47;100503.75;6201499;28;96371;-58
2024/01/30 09:14:35;;;;;;;;;58.75;46.75;;;;;39.44;19.89;100504.13;6201468;28;96286;-58
2024/01/30 09:17:38;;;;;;;;;58.00;47.00;;;;;39.79;20.45;100506.75;6200399;28;96363;-58
2024/01/30 09:20:42;;;;;;;;;56.50;46.00;;;;;39.45;20.21;100497.28;6198974;28;96304;-58
2024/01/30 09:23:45;;;;;;;;;55.00;46.00;;;;;39.89;20.59;100508.94;6198909;28;96443;-58
2024/01/30 09:26:48;;;;;;;;;60.20;47.00;;;;;40.32;19.86;100499.09;6200715;28;96516;-58
2024/01/30 09:29:52;;;;;;;;;58.00;46.00;;;;;40.44;19.49;100496.03;6201995;28;96407;-58
2024/01/30 09:32:55;;;;;;;;;57.25;46.00;;;;;40.73;19.39;100485.91;6202152;28;96966;-58
2024/01/30 09:35:59;;;;;;;;;61.40;47.40;;;;;41.05;19.48;100481.44;6202656;28;96997;-58
2024/01/30 09:39:02;;;;;;;;;59.00;48.00;;;;;41.57;18.97;100482.34;6203453;28;96357;-58
2024/01/30 09:42:12;;;;;;;;;59.00;48.00;;;;;41.43;18.54;100480.19;6210599;28;96391;-58
2024/01/30 09:45:19;;;;;;;;;61.25;48.00;;;;;41.38;18.90;100485.38;6209917;28;96318;-58
2024/01/30 09:48:23;;;;;;;;;57.40;46.40;;;;;41.44;18.65;100469.66;6209462;28;96488;-58
2024/01/30 09:51:28;;;;;;;;;58.00;47.00;;;;;41.48;18.64;100471.34;6209625;28;96369;-58
2024/01/30 09:54:32;;;;;;;;;58.75;47.00;;;;;41.82;18.76;100472.00;6211782;28;96369;-58
2024/01/30 09:57:40;;;;;;;;;60.40;47.20;;;;;41.92;18.52;100464.81;6213198;28;96285;-58
2024/01/30 10:00:44;;;;;;;;;57.00;45.50;;;;;42.16;18.20;100463.31;6204603;28;96519;-58
2024/01/30 10:03:47;;;;;;;;;50.40;41.20;;;;;42.17;17.10;100462.13;6213530;28;96345;-58
2024/01/30 10:06:52;;;;;;;;;49.60;40.00;;;;;42.30;17.38;100457.75;6214046;28;96348;-58
2024/01/30 10:09:56;;;;;;;;;45.00;38.00;;;;;42.50;16.54;100463.91;6213650;28;96323;-58
2024/01/30 10:12:59;;;;;;;;;45.60;39.00;;;;;42.68;16.61;100462.78;6212927;28;96284;-58
2024/01/30 10:16:08;;;;;;;;;43.00;35.50;;;;;42.80;16.30;100453.09;6213236;28;96164;-58
2024/01/30 10:19:11;;;;;;;;;43.20;36.00;;;;;42.80;16.51;100453.09;6212640;28;96283;-58
2024/01/30 10:22:15;;;;;;;;;41.00;34.60;;;;;42.97;15.84;100443.78;6213453;28;96409;-58
2024/01/30 10:25:19;;;;;;;;;40.40;33.40;;;;;43.17;15.92;100445.06;6214251;28;96356;-58
2024/01/30 10:28:22;;;;;;;;;35.00;32.00;;;;;43.24;15.75;100437.75;6210498;28;96929;-58
2024/01/30 10:31:27;;;;;;;;;34.60;32.00;;;;;43.27;15.74;100432.06;6212579;28;96607;-59
2024/01/30 10:34:31;;;;;;;;;38.60;33.60;;;;;43.32;15.38;100434.50;6192973;28;96475;-59
2024/01/30 10:37:35;;;;;;;;;42.40;35.40;;;;;43.60;16.03;100430.84;6213256;28;96391;-58
2024/01/30 10:40:40;;;;;;;;;40.20;35.00;;;;;43.73;15.64;100426.38;6213624;28;96759;-59
2024/01/30 10:43:48;;;;;;;;;39.00;33.33;;;;;43.70;15.47;100420.69;6213431;28;96357;-58
2024/01/30 10:47:01;;;;;;;;;36.25;33.00;;;;;43.70;15.43;100410.13;6213866;28;96360;-59
2024/01/30 10:50:05;;;;;;;;;43.00;35.00;;;;;43.64;15.58;100408.13;6213860;28;96364;-59
2024/01/30 10:53:10;;;;;;;;;41.00;35.00;;;;;43.75;15.58;100403.22;6213147;28;96384;-58
2024/01/30 10:56:14;;;;;;;;;35.60;32.00;;;;;43.66;15.81;100403.66;6213280;28;96216;-59
2024/01/30 10:59:17;;;;;;;;;43.20;35.60;;;;;43.70;15.65;100397.94;6213986;28;96725;-59
2024/01/30 11:02:23;;;;;;;;;42.20;35.60;;;;;43.61;15.20;100395.53;6195120;28;97177;-59
2024/01/30 11:05:29;;;;;;;;;40.00;34.60;;;;;43.56;15.94;100391.09;6189437;28;96381;-59
2024/01/30 11:08:36;;;;;;;;;41.00;35.00;;;;;43.46;15.41;100389.06;6176342;28;96460;-59
2024/01/30 11:11:52;;;;;;;;;38.20;33.20;;;;;43.38;15.36;100363.91;6176069;28;97013;-59
2024/01/30 11:15:07;;;;;;;;;38.50;33.00;;;;;43.42;15.09;100381.75;6172341;28;96314;-59
2024/01/30 11:18:11;;;;;;;;;35.20;31.80;;;;;43.42;15.61;100376.91;6181848;28;96337;-59
2024/01/30 11:21:15;;;;;;;;;38.00;33.00;;;;;43.67;15.51;100373.22;6178246;28;96993;-59
2024/01/30 11:24:20;;;;;;;;;37.00;32.20;;;;;43.69;15.61;100368.75;6165122;28;96598;-60
2024/01/30 11:27:23;;;;;;;;;39.00;33.50;;;;;43.57;15.38;100372.03;6154551;28;96378;-60
2024/01/30 11:30:27;;;;;;;;;37.80;32.80;;;;;43.56;15.10;100365.53;6158906;28;96423;-59
2024/01/30 11:33:32;;;;;;;;;39.40;33.00;;;;;43.34;15.21;100358.25;6153048;28;96371;-59
2024/01/30 11:36:38;;;;;;;;;41.75;35.00;;;;;42.94;15.84;100358.66;6142119;28;96440;-59
2024/01/30 11:39:43;;;;;;;;;38.40;32.40;;;;;43.04;15.93;100350.16;6142180;28;96989;-59
2024/01/30 11:42:48;;;;;;;;;38.00;33.00;;;;;43.08;15.35;100350.16;6142248;28;97101;-59
2024/01/30 11:45:51;;;;;;;;;38.00;32.00;;;;;43.14;15.56;100342.88;6140617;28;96918;-59
2024/01/30 11:48:56;;;;;;;;;32.00;30.40;;;;;43.01;15.39;100347.31;6141634;28;97052;-59
2024/01/30 11:51:59;;;;;;;;;34.40;31.60;;;;;42.84;15.20;100350.94;6141847;28;96339;-58
2024/01/30 11:55:03;;;;;;;;;34.60;32.00;;;;;42.55;15.52;100348.06;6142157;28;96384;-59
2024/01/30 11:58:06;;;;;;;;;36.00;32.20;;;;;42.29;15.61;100348.41;6158389;28;96466;-59
2024/01/30 12:01:10;;;;;;;;;31.00;29.00;;;;;42.06;15.67;100342.22;6173550;28;96478;-59
2024/01/30 12:04:14;;;;;;;;;33.60;31.00;;;;;41.82;15.68;100340.88;6189766;28;96268;-59
2024/01/30 12:07:18;;;;;;;;;35.20;30.00;;;;;41.69;15.76;100329.06;6191310;28;96293;-58
2024/01/30 12:10:22;;;;;;;;;33.00;30.00;;;;;41.58;15.94;100342.38;6190425;28;96302;-58
2024/01/30 12:13:26;;;;;;;;;35.75;31.00;;;;;41.45;15.78;100321.25;6190826;28;96264;-59
2024/01/30 12:16:34;;;;;;;;;32.00;30.00;;;;;41.02;15.95;100320.91;6190721;28;97076;-59
2024/01/30 12:19:39;;;;;;;;;32.00;30.00;;;;;40.57;16.09;100316.44;6191177;28;96436;-57
2024/01/30 12:22:43;;;;;;;;;32.40;30.00;;;;;40.21;16.02;100318.13;6191153;28;96323;-58
2024/01/30 12:25:47;;;;;;;;;31.60;28.00;;;;;39.98;16.50;100311.75;6190778;28;96644;-58
2024/01/30 12:28:51;;;;;;;;;30.00;28.00;;;;;39.57;16.12;100295.88;6192158;28;96428;-58
2024/01/30 12:31:57;;;;;;;;;30.80;27.00;;;;;39.36;16.42;100308.47;6190410;28;96242;-57
2024/01/30 12:35:02;;;;;;;;;30.50;27.50;;;;;38.81;16.68;100314.78;6190366;28;96577;-58
2024/01/30 12:38:05;;;;;;;;;36.80;31.80;;;;;38.38;17.39;100308.38;6191906;28;96496;-57
2024/01/30 12:41:09;;;;;;;;;31.00;29.60;;;;;37.91;17.43;100307.81;6191735;28;96398;-57
2024/01/30 12:44:15;;;;;;;;;32.75;29.50;;;;;37.30;17.97;100309.28;6178134;28;96426;-57
2024/01/30 12:47:18;;;;;;;;;31.40;30.00;;;;;35.93;18.84;100298.78;6191272;28;96366;-58
2024/01/30 12:50:22;;;;;;;;;33.40;30.00;;;;;34.38;18.73;100302.13;6191192;28;96372;-57
2024/01/30 12:53:25;;;;;;;;;40.00;35.00;;;;;32.73;20.35;100300.84;6190930;28;96853;-57
2024/01/30 12:56:28;;;;;;;;;39.40;33.00;;;;;31.15;22.10;100299.56;6190882;28;96342;-57
2024/01/30 12:59:32;;;;;;;;;39.50;33.75;;;;;30.05;22.96;100301.47;6191114;28;96699;-57
2024/01/30 13:02:36;;;;;;;;;39.60;34.20;;;;;29.11;23.83;100302.22;6191008;28;96338;-57
2024/01/30 13:05:41;;;;;;;;;41.00;34.00;;;;;28.32;24.89;100300.69;6191977;28;96165;-58
2024/01/30 13:08:44;;;;;;;;;40.00;35.00;;;;;27.51;26.15;100291.72;6189028;28;96370;-57
2024/01/30 13:11:47;;;;;;;;;46.00;38.00;;;;;26.81;27.19;100287.09;6192858;28;96477;-57
2024/01/30 13:14:50;;;;;;;;;42.00;35.00;;;;;26.16;27.25;100287.44;6194944;28;96323;-58
2024/01/30 13:17:54;;;;;;;;;41.40;35.00;;;;;25.38;28.91;100287.47;6197276;28;96182;-58
2024/01/30 13:20:59;;;;;;;;;47.00;36.00;;;;;24.82;29.57;100286.06;6196449;28;96450;-57
2024/01/30 13:24:02;;;;;;;;;45.00;38.00;;;;;24.13;30.89;100284.00;6195193;28;97061;-57
2024/01/30 13:27:07;;;;;;;;;47.00;38.00;;;;;23.54;31.53;100283.69;6197440;28;96463;-57
2024/01/30 13:30:10;;;;;;;;;49.00;38.00;;;;;23.02;32.74;100281.84;6191333;28;96736;-57
2024/01/30 13:33:14;;;;;;;;;44.00;37.00;;;;;22.56;33.82;100282.72;6196125;28;96524;-57
2024/01/30 13:36:18;;;;;;;;;46.00;38.00;;;;;22.20;34.46;100284.41;6189371;28;96943;-57
2024/01/30 13:39:22;;;;;;;;;46.20;38.00;;;;;21.98;34.99;100279.88;6190216;28;96913;-56
2024/01/30 13:42:27;;;;;;;;;45.00;38.00;;;;;21.67;35.96;100286.16;6169157;28;96669;-57
2024/01/30 13:45:31;;;;;;;;;45.75;38.00;;;;;21.65;35.86;100290.25;6175677;28;96827;-53
2024/01/30 13:48:34;;;;;;;;;41.80;35.40;;;;;21.36;36.73;100284.19;6173606;28;96286;-53
2024/01/30 13:51:39;;;;;;;;;45.00;36.00;;;;;21.01;37.80;100290.91;6186527;28;96865;-54
2024/01/30 13:54:42;;;;;;;;;43.00;36.00;;;;;20.76;37.91;100290.59;6175823;28;96544;-54